Liberty Promise — WWMZ — position and weather

sailwx.info

Track history (hours):
 
Tides and Currents Weather Stations Pressure Air Temp Water Temp Dewpoint Dewpoint Depression Visibility Wind Speed Wind Dir Waves Ship Positions

Liberty Promise

Owner: LIBERTY PROMISE CORPORATION, LAKE SUCCESS, NY. More information available from US FCC via Universal Licensing System and Coast Guard Vessel Documentation Center.

Last reported at 2016-May-03 23:27 UTC. Time now 2016-May-05 21:57 UTC.
Position N 29°54' W 093°55'.

Length 200 m; draft 8.2 m.

Type: Cargo ship. MMSI: 366102000.

Date/timePositionNaut miles runAvg speedWind from/ knotsBaromVisibWave heightAir tempDewpointWater temp
2016-May-03 23:27N 29°54' W 093°55'6 5.3
2016-May-03 22:22N 29°59' W 093°55'10 0.2
2016-May-02 03:28N 30°05' W 094°05'0 0.0
2016-May-01 11:10N 30°05' W 094°05'1 1.8
2016-May-01 10:22N 30°05' W 094°04'5 5.7
2016-May-01 09:26N 30°01' W 093°59'5 5.9
2016-May-01 08:33N 29°59' W 093°54'5 4.9
2016-May-01 07:33N 29°54' W 093°54'8 6.7
2016-May-01 06:22N 29°46' W 093°56'8 9.4
2016-May-01 05:31N 29°40' W 093°50'  
2016-Apr-27 19:28N 25°41' W 079°31'1516.0
2016-Apr-27 18:33N 25°56' W 079°27'1616.3
2016-Apr-27 17:33N 26°11' W 079°23'317 8.3
2016-Apr-26 03:19N 31°08' W 081°32'0 0.0
2016-Apr-26 02:28N 31°08' W 081°32'0 0.0
2016-Apr-26 01:31N 31°08' W 081°32'0 0.0
2016-Apr-26 00:31N 31°08' W 081°32'73 2.1
2016-Apr-24 14:14N 30°36' W 080°15'  
Track history (hours):
 
Tides and Currents Weather Stations Pressure Air Temp Water Temp Dewpoint Dewpoint Depression Visibility Wind Speed Wind Dir Waves Ship Positions

Liberty Promise

Owner: LIBERTY PROMISE CORPORATION, LAKE SUCCESS, NY. More information available from US FCC via Universal Licensing System and Coast Guard Vessel Documentation Center.

Last reported at 2016-May-03 23:27 UTC. Time now 2016-May-05 21:57 UTC.
Position N 29°54' W 093°55'.

Length 200 m; draft 8.2 m.

Type: Cargo ship. MMSI: 366102000.

Date/timePositionNaut miles runAvg speedWind from/ knotsBaromVisibWave heightAir tempDewpointWater temp
2016-May-03 23:27N 29°54' W 093°55'6 5.3
2016-May-03 22:22N 29°59' W 093°55'10 0.2
2016-May-02 03:28N 30°05' W 094°05'0 0.0
2016-May-01 11:10N 30°05' W 094°05'1 1.8
2016-May-01 10:22N 30°05' W 094°04'5 5.7
2016-May-01 09:26N 30°01' W 093°59'5 5.9
2016-May-01 08:33N 29°59' W 093°54'5 4.9
2016-May-01 07:33N 29°54' W 093°54'8 6.7
2016-May-01 06:22N 29°46' W 093°56'8 9.4
2016-May-01 05:31N 29°40' W 093°50'  
2016-Apr-27 19:28N 25°41' W 079°31'1516.0
2016-Apr-27 18:33N 25°56' W 079°27'1616.3
2016-Apr-27 17:33N 26°11' W 079°23'317 8.3
2016-Apr-26 03:19N 31°08' W 081°32'0 0.0
2016-Apr-26 02:28N 31°08' W 081°32'0 0.0
2016-Apr-26 01:31N 31°08' W 081°32'0 0.0
2016-Apr-26 00:31N 31°08' W 081°32'73 2.1
2016-Apr-24 14:14N 30°36' W 080°15'  

Dump ship's entire track history